Time;durP1;ratioP1;P1;durP2;ratioP2;P2;SDS_P1;SDS_P2;PMS_P1;PMS_P2;Temp;Humidity;BMP_temperature;BMP_pressure;BME280_temperature;BME280_humidity;BME280_pressure;Samples;Min_cycle;Max_cycle;Signal;HPM_P1;HPM_P2
2023/12/14 00:00:09;;;;;;;1.42;1.33;;;;;;;;;;5073377;28;20900;-78
2023/12/14 00:02:35;;;;;;;1.73;1.42;;;;;;;;;;5074612;28;20414;-78
2023/12/14 00:05:01;;;;;;;1.50;1.30;;;;;;;;;;5076827;28;20368;-79
2023/12/14 00:07:27;;;;;;;1.60;1.30;;;;;;;;;;5076813;28;20926;-79
2023/12/14 00:09:53;;;;;;;2.00;1.30;;;;;;;;;;5077141;28;20410;-79
2023/12/14 00:12:19;;;;;;;1.33;1.23;;;;;;;;;;5076389;28;20382;-79
2023/12/14 00:14:45;;;;;;;1.35;1.13;;;;;;;;;;5073313;28;20437;-79
2023/12/14 00:17:11;;;;;;;1.55;1.13;;;;;;;;;;5056069;28;20847;-79
2023/12/14 00:19:37;;;;;;;1.10;1.00;;;;;;;;;;5055774;28;20384;-79
2023/12/14 00:22:03;;;;;;;1.25;0.95;;;;;;;;;;5056970;28;20390;-79
2023/12/14 00:24:29;;;;;;;1.73;1.00;;;;;;;;;;5055808;28;20913;-79
2023/12/14 00:26:55;;;;;;;1.65;1.10;;;;;;;;;;5057282;28;20378;-79
2023/12/14 00:29:21;;;;;;;2.22;1.40;;;;;;;;;;5056080;28;20484;-79
2023/12/14 00:31:47;;;;;;;1.30;1.20;;;;;;;;;;5056350;28;20383;-79
2023/12/14 00:34:13;;;;;;;1.65;1.17;;;;;;;;;;5056295;28;20413;-79
2023/12/14 00:36:39;;;;;;;1.83;1.27;;;;;;;;;;5059062;28;20378;-79
2023/12/14 00:39:05;;;;;;;2.17;1.13;;;;;;;;;;5060067;28;20377;-79
2023/12/14 00:41:31;;;;;;;1.10;1.00;;;;;;;;;;5060551;28;20713;-79
2023/12/14 00:43:57;;;;;;;1.20;1.10;;;;;;;;;;5060569;28;20435;-79
2023/12/14 00:46:23;;;;;;;1.52;1.33;;;;;;;;;;5059652;28;20389;-79
2023/12/14 00:48:49;;;;;;;1.98;1.38;;;;;;;;;;5060004;28;20479;-79
2023/12/14 00:51:15;;;;;;;1.47;1.27;;;;;;;;;;5059876;28;20452;-79
2023/12/14 00:53:41;;;;;;;1.50;1.25;;;;;;;;;;5059628;28;20451;-79
2023/12/14 00:56:08;;;;;;;1.50;1.10;;;;;;;;;;5060070;28;20839;-79
2023/12/14 00:58:34;;;;;;;2.10;1.30;;;;;;;;;;5059949;28;20852;-79
2023/12/14 01:01:00;;;;;;;1.30;1.00;;;;;;;;;;5060122;28;20392;-79
2023/12/14 01:03:26;;;;;;;1.48;1.38;;;;;;;;;;5065429;28;20396;-79
2023/12/14 01:05:52;;;;;;;1.42;1.33;;;;;;;;;;5080046;28;20384;-79
2023/12/14 01:08:18;;;;;;;2.03;1.30;;;;;;;;;;5079488;28;20379;-79
2023/12/14 01:10:44;;;;;;;1.95;1.20;;;;;;;;;;5079488;28;20422;-79
2023/12/14 01:13:10;;;;;;;1.65;1.20;;;;;;;;;;5079939;28;20391;-79
2023/12/14 01:15:36;;;;;;;1.50;1.10;;;;;;;;;;5079596;28;20406;-79
2023/12/14 01:18:02;;;;;;;1.45;1.15;;;;;;;;;;5079683;28;20392;-79
2023/12/14 01:20:29;;;;;;;1.50;1.10;;;;;;;;;;5079394;28;20382;-79
2023/12/14 01:22:55;;;;;;;1.10;1.00;;;;;;;;;;5079761;28;20442;-79
2023/12/14 01:25:21;;;;;;;1.63;1.03;;;;;;;;;;5079908;28;20384;-79
2023/12/14 01:27:47;;;;;;;1.10;1.00;;;;;;;;;;5078757;28;20510;-79
2023/12/14 01:30:13;;;;;;;1.40;1.25;;;;;;;;;;5079198;28;20729;-79
2023/12/14 01:32:39;;;;;;;1.20;1.05;;;;;;;;;;5079060;28;20392;-79
2023/12/14 01:35:05;;;;;;;1.10;1.00;;;;;;;;;;5079284;28;20391;-79
2023/12/14 01:37:31;;;;;;;0.90;0.90;;;;;;;;;;5079196;28;20486;-79
2023/12/14 01:39:57;;;;;;;1.90;1.00;;;;;;;;;;5079779;28;20387;-79
2023/12/14 01:42:23;;;;;;;1.85;1.00;;;;;;;;;;5079005;28;20873;-79
2023/12/14 01:44:49;;;;;;;1.80;1.07;;;;;;;;;;5079073;28;20379;-79
2023/12/14 01:47:15;;;;;;;1.90;1.20;;;;;;;;;;5077623;28;20400;-79
2023/12/14 01:49:41;;;;;;;1.08;0.98;;;;;;;;;;5079078;28;20711;-79
2023/12/14 01:52:07;;;;;;;1.20;1.10;;;;;;;;;;5079091;28;20514;-79
2023/12/14 01:54:33;;;;;;;1.43;1.33;;;;;;;;;;5079791;28;20387;-79
2023/12/14 01:56:59;;;;;;;1.50;1.20;;;;;;;;;;5079043;28;20376;-79
2023/12/14 01:59:25;;;;;;;1.23;0.93;;;;;;;;;;5077723;28;20391;-79
2023/12/14 02:01:56;;;;;;;1.13;1.00;;;;;;;;;;5078975;28;20410;-79
2023/12/14 02:04:23;;;;;;;2.00;1.08;;;;;;;;;;5078687;28;20408;-79
2023/12/14 02:06:49;;;;;;;1.80;0.90;;;;;;;;;;5077939;28;20380;-79
2023/12/14 02:09:15;;;;;;;1.45;0.80;;;;;;;;;;5078278;28;20454;-79
2023/12/14 02:11:41;;;;;;;1.00;0.90;;;;;;;;;;5078789;28;20376;-79
2023/12/14 02:14:09;;;;;;;1.45;0.80;;;;;;;;;;5078299;28;20387;-79
2023/12/14 02:16:38;;;;;;;0.70;0.70;;;;;;;;;;5078400;28;20466;-79
2023/12/14 02:19:04;;;;;;;1.00;0.80;;;;;;;;;;5076566;28;20466;-79
2023/12/14 02:21:30;;;;;;;1.10;0.75;;;;;;;;;;5076320;28;20395;-79
2023/12/14 02:23:56;;;;;;;0.82;0.80;;;;;;;;;;5077352;28;20782;-79
2023/12/14 02:26:22;;;;;;;0.90;0.80;;;;;;;;;;5077774;28;20376;-80
2023/12/14 02:28:48;;;;;;;2.20;1.10;;;;;;;;;;5077639;28;20378;-81
2023/12/14 02:31:14;;;;;;;1.50;1.40;;;;;;;;;;5077245;28;20402;-81
2023/12/14 02:33:40;;;;;;;1.98;1.63;;;;;;;;;;5077348;28;20387;-80
2023/12/14 02:36:06;;;;;;;1.65;1.55;;;;;;;;;;5077744;28;20445;-80
2023/12/14 02:38:33;;;;;;;2.28;2.08;;;;;;;;;;5077496;28;20437;-80
2023/12/14 02:40:59;;;;;;;2.53;2.00;;;;;;;;;;5077524;28;20376;-80
2023/12/14 02:43:25;;;;;;;2.47;2.10;;;;;;;;;;5076461;28;20415;-80
2023/12/14 02:45:51;;;;;;;2.35;2.15;;;;;;;;;;5076859;28;20455;-80
2023/12/14 02:48:17;;;;;;;2.45;2.20;;;;;;;;;;5076346;28;20849;-79
2023/12/14 02:50:43;;;;;;;2.20;2.00;;;;;;;;;;5076562;28;20415;-80
2023/12/14 02:53:09;;;;;;;2.35;2.15;;;;;;;;;;5077223;28;20390;-80
2023/12/14 02:55:35;;;;;;;2.22;2.00;;;;;;;;;;5077455;28;20459;-80
2023/12/14 02:58:01;;;;;;;2.28;2.08;;;;;;;;;;5077325;28;20395;-80
2023/12/14 03:00:27;;;;;;;1.90;1.80;;;;;;;;;;5077092;28;20376;-78
2023/12/14 03:02:53;;;;;;;2.15;1.95;;;;;;;;;;5076904;28;20727;-80
2023/12/14 03:05:18;;;;;;;1.55;1.45;;;;;;;;;;5077458;28;20372;-80
2023/12/14 03:07:45;;;;;;;1.67;1.55;;;;;;;;;;5076937;28;20379;-81
2023/12/14 03:10:11;;;;;;;1.33;1.23;;;;;;;;;;5077020;28;20422;-78
2023/12/14 03:12:37;;;;;;;1.30;1.20;;;;;;;;;;5077471;28;20387;-78
2023/12/14 03:15:03;;;;;;;1.42;1.33;;;;;;;;;;5077480;28;20471;-80
2023/12/14 03:17:29;;;;;;;1.60;1.10;;;;;;;;;;5077287;28;20396;-79
2023/12/14 03:19:55;;;;;;;2.30;1.40;;;;;;;;;;5076874;28;20445;-78
2023/12/14 03:22:21;;;;;;;2.57;2.13;;;;;;;;;;5076656;28;20432;-79
2023/12/14 03:24:47;;;;;;;3.15;2.05;;;;;;;;;;5076921;28;20387;-79
2023/12/14 03:27:13;;;;;;;2.22;1.60;;;;;;;;;;5076825;28;20388;-80
2023/12/14 03:29:39;;;;;;;1.47;1.37;;;;;;;;;;5077193;28;20376;-81
2023/12/14 03:32:05;;;;;;;1.38;1.23;;;;;;;;;;5076681;28;20462;-79
2023/12/14 03:34:31;;;;;;;1.33;1.00;;;;;;;;;;5074214;28;20386;-79
2023/12/14 03:36:57;;;;;;;1.45;1.33;;;;;;;;;;5076614;28;20384;-79
2023/12/14 03:39:23;;;;;;;1.50;1.17;;;;;;;;;;5076276;28;20383;-78
2023/12/14 03:41:49;;;;;;;1.80;1.60;;;;;;;;;;5077189;28;20387;-79
2023/12/14 03:44:15;;;;;;;1.35;1.20;;;;;;;;;;5076160;28;20404;-79
2023/12/14 03:46:41;;;;;;;1.13;1.00;;;;;;;;;;5076494;28;20495;-78
2023/12/14 03:49:07;;;;;;;1.55;1.35;;;;;;;;;;5076655;28;20395;-79
2023/12/14 03:51:33;;;;;;;1.58;1.48;;;;;;;;;;5076763;28;20372;-80
2023/12/14 03:53:59;;;;;;;1.65;1.48;;;;;;;;;;5076426;28;20380;-79
2023/12/14 03:56:25;;;;;;;2.07;1.50;;;;;;;;;;5076625;28;20384;-78
2023/12/14 03:58:50;;;;;;;1.40;1.30;;;;;;;;;;5076685;28;20415;-78
2023/12/14 04:01:20;;;;;;;2.40;1.20;;;;;;;;;;5076181;28;20725;-79
2023/12/14 04:03:46;;;;;;;2.00;1.30;;;;;;;;;;5076492;28;20896;-79
2023/12/14 04:06:13;;;;;;;2.15;1.55;;;;;;;;;;5076718;28;20372;-79
2023/12/14 04:08:40;;;;;;;1.63;1.40;;;;;;;;;;5076362;28;20384;-79
2023/12/14 04:11:06;;;;;;;2.38;1.40;;;;;;;;;;5081064;28;20379;-79
2023/12/14 04:13:32;;;;;;;2.20;1.60;;;;;;;;;;5082739;28;20371;-79
2023/12/14 04:15:58;;;;;;;1.80;1.65;;;;;;;;;;5083270;28;20879;-79
2023/12/14 04:18:24;;;;;;;1.65;1.48;;;;;;;;;;5081633;28;20371;-79
2023/12/14 04:20:50;;;;;;;1.95;1.75;;;;;;;;;;5079601;28;20435;-79
2023/12/14 04:23:16;;;;;;;3.05;2.17;;;;;;;;;;5082599;28;20402;-79
2023/12/14 04:25:42;;;;;;;2.25;1.55;;;;;;;;;;5082576;28;20368;-79
2023/12/14 04:28:08;;;;;;;2.10;1.90;;;;;;;;;;5082672;28;20919;-79
2023/12/14 04:30:34;;;;;;;1.52;1.42;;;;;;;;;;5082529;28;20371;-79
2023/12/14 04:33:00;;;;;;;1.75;1.65;;;;;;;;;;5083133;28;20398;-79
2023/12/14 04:35:26;;;;;;;2.40;1.98;;;;;;;;;;5083295;28;20525;-79
2023/12/14 04:37:52;;;;;;;2.33;1.75;;;;;;;;;;5082741;28;20376;-79
2023/12/14 04:40:18;;;;;;;2.10;1.85;;;;;;;;;;5082722;28;20725;-79
2023/12/14 04:42:44;;;;;;;2.40;2.10;;;;;;;;;;5083417;28;20888;-79
2023/12/14 04:45:11;;;;;;;2.45;1.88;;;;;;;;;;5082873;28;20390;-79
2023/12/14 04:47:37;;;;;;;2.90;2.50;;;;;;;;;;5082432;28;20888;-79
2023/12/14 04:50:03;;;;;;;11.43;8.65;;;;;;;;;;5082876;28;20433;-79
2023/12/14 04:52:29;;;;;;;3.22;2.92;;;;;;;;;;5082666;28;20414;-79
2023/12/14 04:54:55;;;;;;;2.42;2.00;;;;;;;;;;5082616;28;20371;-79
2023/12/14 04:57:23;;;;;;;2.00;1.90;;;;;;;;;;5082046;28;20434;-80
2023/12/14 04:59:49;;;;;;;2.93;2.50;;;;;;;;;;5083138;28;20387;-79
2023/12/14 05:02:15;;;;;;;3.10;2.80;;;;;;;;;;5082433;28;20375;-79
2023/12/14 05:04:41;;;;;;;2.40;2.13;;;;;;;;;;5082100;28;20409;-79
2023/12/14 05:07:07;;;;;;;2.33;2.10;;;;;;;;;;5082368;28;20853;-79
2023/12/14 05:09:33;;;;;;;13.43;9.00;;;;;;;;;;5081850;28;20376;-79
2023/12/14 05:11:59;;;;;;;8.30;6.05;;;;;;;;;;5081778;28;20382;-79
2023/12/14 05:14:27;;;;;;;2.10;1.83;;;;;;;;;;5082219;28;20898;-79
2023/12/14 05:16:53;;;;;;;2.67;2.47;;;;;;;;;;5082458;28;20413;-79
2023/12/14 05:19:19;;;;;;;2.42;1.88;;;;;;;;;;5082377;28;20441;-79
2023/12/14 05:21:45;;;;;;;1.77;1.67;;;;;;;;;;5079781;28;20380;-79
2023/12/14 05:24:11;;;;;;;2.17;1.98;;;;;;;;;;5079801;28;20411;-79
2023/12/14 05:26:37;;;;;;;1.80;1.70;;;;;;;;;;5078828;28;20372;-79
2023/12/14 05:29:03;;;;;;;2.10;1.90;;;;;;;;;;5079448;28;20949;-79
2023/12/14 05:31:29;;;;;;;2.25;2.05;;;;;;;;;;5079267;28;20397;-79
2023/12/14 05:33:55;;;;;;;1.85;1.48;;;;;;;;;;5079487;28;20387;-79
2023/12/14 05:36:21;;;;;;;1.70;1.60;;;;;;;;;;5078731;28;20384;-79
2023/12/14 05:38:47;;;;;;;1.50;1.40;;;;;;;;;;5078825;28;20383;-79
2023/12/14 05:41:13;;;;;;;1.63;1.52;;;;;;;;;;5079193;28;20387;-79
2023/12/14 05:43:39;;;;;;;1.30;1.20;;;;;;;;;;5078327;28;20400;-79
2023/12/14 05:46:05;;;;;;;1.40;1.30;;;;;;;;;;5078551;28;20719;-79
2023/12/14 05:48:31;;;;;;;1.40;1.30;;;;;;;;;;5078116;28;20427;-79
2023/12/14 05:50:57;;;;;;;1.20;1.10;;;;;;;;;;5078948;28;20433;-79
2023/12/14 05:53:23;;;;;;;1.35;1.25;;;;;;;;;;5077750;28;20382;-79
2023/12/14 05:55:49;;;;;;;1.90;1.75;;;;;;;;;;5078130;28;20383;-79
2023/12/14 05:58:15;;;;;;;1.90;1.80;;;;;;;;;;5077921;28;20429;-79
2023/12/14 06:00:41;;;;;;;1.90;1.80;;;;;;;;;;5078705;28;20748;-79
2023/12/14 06:03:07;;;;;;;1.85;1.75;;;;;;;;;;5078574;28;20403;-79
2023/12/14 06:05:33;;;;;;;2.00;1.90;;;;;;;;;;5078238;28;20380;-79
2023/12/14 06:07:59;;;;;;;2.25;2.10;;;;;;;;;;5077800;28;20399;-78
2023/12/14 06:10:25;;;;;;;2.70;2.50;;;;;;;;;;5078580;28;20380;-79
2023/12/14 06:12:51;;;;;;;2.50;2.30;;;;;;;;;;5077997;28;20383;-79
2023/12/14 06:15:17;;;;;;;2.30;2.20;;;;;;;;;;5077713;28;20868;-79
2023/12/14 06:17:43;;;;;;;2.72;2.53;;;;;;;;;;5077681;28;20391;-79
2023/12/14 06:20:09;;;;;;;2.70;2.50;;;;;;;;;;5078728;28;20399;-79
2023/12/14 06:22:38;;;;;;;3.00;2.80;;;;;;;;;;5078687;28;20396;-79
2023/12/14 06:25:04;;;;;;;2.80;2.60;;;;;;;;;;5077803;28;20382;-79
2023/12/14 06:27:30;;;;;;;2.60;2.40;;;;;;;;;;5076427;28;20372;-79
2023/12/14 06:29:56;;;;;;;2.67;2.47;;;;;;;;;;5073584;28;20379;-79
2023/12/14 06:32:22;;;;;;;2.63;2.42;;;;;;;;;;5077764;28;20479;-79
2023/12/14 06:34:48;;;;;;;2.50;2.30;;;;;;;;;;5077391;28;20382;-79
2023/12/14 06:37:14;;;;;;;2.67;2.47;;;;;;;;;;5076718;28;20364;-79
2023/12/14 06:39:44;;;;;;;3.22;2.60;;;;;;;;;;5077178;28;20429;-79
2023/12/14 06:42:11;;;;;;;2.50;2.30;;;;;;;;;;5077347;28;20454;-79
2023/12/14 06:44:37;;;;;;;2.60;2.40;;;;;;;;;;5077377;28;20404;-79
2023/12/14 06:47:04;;;;;;;2.50;2.30;;;;;;;;;;5076138;28;20477;-79
2023/12/14 06:49:30;;;;;;;2.20;2.10;;;;;;;;;;5077096;28;20378;-79
2023/12/14 06:51:56;;;;;;;2.70;2.50;;;;;;;;;;5076767;28;20782;-79
2023/12/14 06:54:22;;;;;;;2.50;2.30;;;;;;;;;;5076942;28;20379;-79
2023/12/14 06:56:48;;;;;;;2.97;2.67;;;;;;;;;;5076973;28;20376;-79
2023/12/14 06:59:14;;;;;;;2.85;2.65;;;;;;;;;;5059255;28;20434;-78
2023/12/14 07:01:40;;;;;;;2.17;1.90;;;;;;;;;;5075438;28;20391;-78
2023/12/14 07:04:07;;;;;;;2.40;2.20;;;;;;;;;;5076138;28;20454;-79
2023/12/14 07:06:35;;;;;;;2.78;2.58;;;;;;;;;;5076605;28;20375;-79
2023/12/14 07:09:01;;;;;;;2.50;2.30;;;;;;;;;;5076999;28;20375;-79
2023/12/14 07:11:26;;;;;;;5.30;4.80;;;;;;;;;;5076698;28;20384;-79
2023/12/14 07:13:52;;;;;;;3.60;3.30;;;;;;;;;;5076790;28;20445;-79
2023/12/14 07:16:18;;;;;;;2.47;2.27;;;;;;;;;;5076016;28;20379;-79
2023/12/14 07:18:44;;;;;;;2.63;2.42;;;;;;;;;;5076012;28;20383;-79
2023/12/14 07:21:10;;;;;;;3.50;3.20;;;;;;;;;;5076735;28;20396;-79
2023/12/14 07:23:37;;;;;;;2.57;2.37;;;;;;;;;;5076159;28;20396;-79
2023/12/14 07:26:03;;;;;;;5.40;3.05;;;;;;;;;;5075603;28;20376;-79
2023/12/14 07:28:29;;;;;;;2.72;2.53;;;;;;;;;;5075821;28;20382;-79
2023/12/14 07:30:55;;;;;;;3.30;2.97;;;;;;;;;;5075476;28;20714;-79
2023/12/14 07:33:21;;;;;;;3.30;3.10;;;;;;;;;;5076336;28;20384;-79
2023/12/14 07:35:47;;;;;;;4.07;3.67;;;;;;;;;;5076301;28;20392;-79
2023/12/14 07:38:13;;;;;;;4.50;4.10;;;;;;;;;;5076059;28;20419;-79
2023/12/14 07:40:40;;;;;;;4.97;4.57;;;;;;;;;;5076158;28;20380;-79
2023/12/14 07:43:06;;;;;;;5.40;5.00;;;;;;;;;;5075732;28;20404;-79
2023/12/14 07:45:32;;;;;;;5.32;4.93;;;;;;;;;;5075810;28;20382;-79
2023/12/14 07:47:58;;;;;;;5.83;5.33;;;;;;;;;;5075422;28;20475;-79
2023/12/14 07:50:24;;;;;;;6.32;5.82;;;;;;;;;;5076047;28;20376;-79
2023/12/14 07:52:50;;;;;;;6.70;6.10;;;;;;;;;;5075482;28;20386;-79
2023/12/14 07:55:17;;;;;;;7.10;6.50;;;;;;;;;;5075668;28;20376;-79
2023/12/14 07:57:43;;;;;;;6.57;6.07;;;;;;;;;;5076071;28;20379;-80
2023/12/14 08:00:10;;;;;;;6.87;6.37;;;;;;;;;;5075400;28;20509;-79
2023/12/14 08:02:36;;;;;;;7.10;6.50;;;;;;;;;;5075448;28;20388;-79
2023/12/14 08:05:02;;;;;;;7.57;6.97;;;;;;;;;;5075752;28;20449;-79
2023/12/14 08:07:29;;;;;;;7.93;7.23;;;;;;;;;;5075235;28;20388;-79
2023/12/14 08:09:57;;;;;;;7.50;6.90;;;;;;;;;;5076441;28;20776;-79
2023/12/14 08:12:24;;;;;;;7.20;6.60;;;;;;;;;;5075366;28;20388;-79
2023/12/14 08:14:50;;;;;;;6.82;6.25;;;;;;;;;;5075794;28;20494;-79
2023/12/14 08:17:16;;;;;;;7.25;6.60;;;;;;;;;;5075029;28;20388;-80
2023/12/14 08:19:42;;;;;;;7.80;7.05;;;;;;;;;;5075634;28;20379;-81
2023/12/14 08:22:11;;;;;;;7.60;6.97;;;;;;;;;;5076166;28;20910;-81
2023/12/14 08:24:37;;;;;;;8.20;7.43;;;;;;;;;;5075998;28;20406;-81
2023/12/14 08:27:03;;;;;;;7.70;6.97;;;;;;;;;;5076368;28;20935;-81
2023/12/14 08:29:29;;;;;;;8.00;7.30;;;;;;;;;;5065670;28;20889;-81
2023/12/14 08:31:57;;;;;;;7.13;6.53;;;;;;;;;;5055805;28;20452;-81
2023/12/14 08:34:23;;;;;;;6.30;5.80;;;;;;;;;;5055484;28;20388;-81
2023/12/14 08:36:49;;;;;;;5.50;5.00;;;;;;;;;;5055948;28;20385;-81
2023/12/14 08:39:15;;;;;;;5.40;4.90;;;;;;;;;;5037911;28;20395;-81
2023/12/14 08:41:41;;;;;;;6.17;5.67;;;;;;;;;;5055553;28;20402;-81
2023/12/14 08:44:08;;;;;;;6.43;5.90;;;;;;;;;;5056494;28;20409;-81
2023/12/14 08:46:44;;;;;;;6.32;5.82;;;;;;;;;;5055319;28;20456;-81
2023/12/14 08:49:10;;;;;;;6.10;5.70;;;;;;;;;;5055511;28;20929;-81
2023/12/14 08:51:36;;;;;;;5.80;5.40;;;;;;;;;;5056603;28;20435;-81
2023/12/14 08:54:02;;;;;;;6.07;5.60;;;;;;;;;;5055512;28;20875;-81
2023/12/14 08:56:28;;;;;;;6.25;5.65;;;;;;;;;;5056930;28;20385;-81
2023/12/14 08:58:54;;;;;;;6.70;6.13;;;;;;;;;;5059401;28;20912;-81
2023/12/14 09:01:21;;;;;;;7.13;6.53;;;;;;;;;;5059658;28;20519;-81
2023/12/14 09:03:47;;;;;;;6.82;6.13;;;;;;;;;;5058781;28;20431;-80
2023/12/14 09:06:14;;;;;;;6.80;6.20;;;;;;;;;;5059218;28;20454;-80
2023/12/14 09:08:40;;;;;;;6.90;6.30;;;;;;;;;;5059022;28;20396;-80
2023/12/14 09:11:07;;;;;;;7.00;6.50;;;;;;;;;;5073873;28;20899;-80
2023/12/14 09:13:33;;;;;;;6.85;6.25;;;;;;;;;;5078933;28;20395;-81
2023/12/14 09:15:58;;;;;;;6.00;5.40;;;;;;;;;;5079566;28;20383;-80
2023/12/14 09:18:24;;;;;;;6.20;5.70;;;;;;;;;;5079437;28;20902;-80
2023/12/14 09:20:51;;;;;;;6.05;5.55;;;;;;;;;;5079037;28;20391;-80
2023/12/14 09:23:18;;;;;;;5.63;5.13;;;;;;;;;;5078869;28;20406;-80
2023/12/14 09:25:44;;;;;;;6.40;5.90;;;;;;;;;;5078990;28;20469;-81
2023/12/14 09:28:10;;;;;;;5.72;5.20;;;;;;;;;;5078879;28;20376;-81
2023/12/14 09:30:36;;;;;;;5.30;4.80;;;;;;;;;;5077678;28;20387;-81
2023/12/14 09:33:02;;;;;;;4.90;4.50;;;;;;;;;;5078886;28;20426;-81
2023/12/14 09:35:28;;;;;;;4.38;4.07;;;;;;;;;;5078600;28;20726;-80
2023/12/14 09:37:56;;;;;;;4.03;3.72;;;;;;;;;;5079189;28;20436;-80
2023/12/14 09:40:22;;;;;;;4.30;3.90;;;;;;;;;;5079232;28;20492;-80
2023/12/14 09:42:48;;;;;;;4.10;3.80;;;;;;;;;;5078564;28;20436;-81
2023/12/14 09:45:17;;;;;;;4.23;3.83;;;;;;;;;;5078825;28;20368;-80
2023/12/14 09:47:43;;;;;;;4.60;3.75;;;;;;;;;;5078233;28;20773;-80
2023/12/14 09:50:09;;;;;;;4.22;3.83;;;;;;;;;;5078782;28;20388;-80
2023/12/14 09:52:35;;;;;;;3.60;3.30;;;;;;;;;;5077762;28;20384;-80
2023/12/14 09:55:03;;;;;;;3.28;3.08;;;;;;;;;;5078325;28;20834;-80
2023/12/14 09:57:29;;;;;;;3.13;2.92;;;;;;;;;;5078748;28;20475;-80
2023/12/14 09:59:56;;;;;;;3.40;3.10;;;;;;;;;;5078286;28;20400;-80
2023/12/14 10:02:26;;;;;;;4.10;3.70;;;;;;;;;;5077886;28;20368;-80
2023/12/14 10:04:52;;;;;;;3.67;3.38;;;;;;;;;;5078203;28;20399;-81
2023/12/14 10:07:19;;;;;;;4.00;3.60;;;;;;;;;;5060575;28;20395;-80
2023/12/14 10:09:45;;;;;;;3.90;3.60;;;;;;;;;;5077410;28;20375;-80
2023/12/14 10:12:10;;;;;;;4.75;3.63;;;;;;;;;;5077809;28;20383;-80
2023/12/14 10:14:38;;;;;;;3.80;3.50;;;;;;;;;;5077479;28;20466;-80
2023/12/14 10:17:34;;;;;;;3.60;3.30;;;;;;;;;;5078009;28;20419;-80
2023/12/14 10:20:03;;;;;;;3.20;2.95;;;;;;;;;;5051516;28;20428;-80
2023/12/14 10:22:32;;;;;;;3.03;2.83;;;;;;;;;;5057760;28;20523;-80
2023/12/14 10:24:59;;;;;;;2.97;2.77;;;;;;;;;;5058114;28;20464;-80
2023/12/14 10:27:25;;;;;;;3.10;2.80;;;;;;;;;;5057961;28;20370;-80
2023/12/14 10:29:51;;;;;;;3.03;2.83;;;;;;;;;;5058065;28;20401;-80
2023/12/14 10:32:18;;;;;;;2.47;2.28;;;;;;;;;;5057811;28;20405;-80
2023/12/14 10:34:44;;;;;;;3.30;3.00;;;;;;;;;;5057480;28;20412;-80
2023/12/14 10:37:10;;;;;;;3.30;3.10;;;;;;;;;;5057311;28;20389;-80
2023/12/14 10:39:38;;;;;;;3.42;2.80;;;;;;;;;;5057245;28;20480;-80
2023/12/14 10:42:04;;;;;;;3.10;2.90;;;;;;;;;;5057115;28;20439;-80
2023/12/14 10:44:30;;;;;;;3.40;3.10;;;;;;;;;;5057016;28;20401;-80
2023/12/14 10:46:58;;;;;;;3.10;2.90;;;;;;;;;;5056787;28;20459;-80
2023/12/14 10:49:27;;;;;;;3.60;3.00;;;;;;;;;;5056277;28;20386;-80
2023/12/14 10:51:54;;;;;;;2.97;2.78;;;;;;;;;;5057808;28;20381;-80
2023/12/14 10:54:20;;;;;;;3.33;3.03;;;;;;;;;;5057060;28;20495;-80
2023/12/14 10:56:46;;;;;;;3.22;3.00;;;;;;;;;;5056374;28;20392;-80
2023/12/14 10:59:16;;;;;;;4.18;3.05;;;;;;;;;;5057036;28;20412;-80
2023/12/14 11:01:42;;;;;;;2.90;2.70;;;;;;;;;;5057119;28;20381;-80
2023/12/14 11:04:13;;;;;;;3.50;3.20;;;;;;;;;;5056546;28;20579;-80
2023/12/14 11:06:42;;;;;;;2.80;2.60;;;;;;;;;;5056535;28;20460;-80
2023/12/14 11:09:10;;;;;;;3.10;2.90;;;;;;;;;;5056585;28;20453;-80
2023/12/14 11:11:46;;;;;;;2.77;2.50;;;;;;;;;;5056170;28;20460;-80
2023/12/14 11:14:13;;;;;;;2.63;2.40;;;;;;;;;;5066883;28;20388;-80
2023/12/14 11:16:46;;;;;;;2.97;2.28;;;;;;;;;;5074569;28;20379;-81
2023/12/14 11:19:24;;;;;;;2.15;2.03;;;;;;;;;;5076524;28;20798;-80
2023/12/14 11:22:08;;;;;;;3.67;2.60;;;;;;;;;;5076268;28;20379;-80
2023/12/14 11:24:37;;;;;;;2.50;2.30;;;;;;;;;;5075620;28;20873;-80
2023/12/14 11:27:07;;;;;;;2.20;2.10;;;;;;;;;;5076564;28;20376;-80
2023/12/14 11:29:33;;;;;;;2.60;2.40;;;;;;;;;;5075938;28;20402;-80
2023/12/14 11:31:59;;;;;;;2.50;2.30;;;;;;;;;;5076527;28;20372;-80
2023/12/14 11:34:25;;;;;;;2.60;2.40;;;;;;;;;;5076282;28;20380;-80
2023/12/14 11:36:51;;;;;;;2.30;2.10;;;;;;;;;;5076348;28;20749;-80
2023/12/14 11:39:17;;;;;;;3.17;2.67;;;;;;;;;;5075605;28;20380;-80
2023/12/14 11:41:58;;;;;;;2.43;2.23;;;;;;;;;;5075938;28;20391;-80
2023/12/14 11:44:25;;;;;;;2.40;2.20;;;;;;;;;;5075765;28;20765;-80
2023/12/14 11:46:51;;;;;;;2.72;2.53;;;;;;;;;;5075609;28;20459;-80
2023/12/14 11:49:17;;;;;;;2.80;2.60;;;;;;;;;;5076392;28;20404;-81
2023/12/14 11:51:46;;;;;;;2.80;2.58;;;;;;;;;;5075294;28;20388;-81
2023/12/14 11:54:12;;;;;;;2.95;2.75;;;;;;;;;;5074689;28;20383;-81
2023/12/14 11:56:38;;;;;;;3.17;2.88;;;;;;;;;;5074627;28;20749;-80
2023/12/14 11:59:04;;;;;;;2.90;2.60;;;;;;;;;;5075274;28;20399;-80
2023/12/14 12:01:31;;;;;;;2.40;2.20;;;;;;;;;;5074012;28;20384;-80
2023/12/14 12:03:57;;;;;;;2.90;2.60;;;;;;;;;;5074240;28;20414;-81
2023/12/14 12:06:24;;;;;;;3.15;2.50;;;;;;;;;;5074792;28;20383;-81
2023/12/14 12:08:50;;;;;;;2.70;2.50;;;;;;;;;;5074171;28;20857;-81
2023/12/14 12:11:17;;;;;;;2.92;2.70;;;;;;;;;;5073909;28;20379;-80
2023/12/14 12:13:43;;;;;;;2.60;2.40;;;;;;;;;;5074504;28;20380;-80
2023/12/14 12:16:09;;;;;;;2.77;2.57;;;;;;;;;;5074366;28;20476;-80
2023/12/14 12:18:35;;;;;;;2.55;2.35;;;;;;;;;;5075247;28;20388;-80
2023/12/14 12:21:05;;;;;;;2.67;2.45;;;;;;;;;;5076432;28;20456;-80
2023/12/14 12:23:31;;;;;;;2.28;2.08;;;;;;;;;;5075673;28;20482;-80
2023/12/14 12:25:57;;;;;;;2.85;2.55;;;;;;;;;;5075306;28;20368;-80
2023/12/14 12:28:23;;;;;;;3.63;2.63;;;;;;;;;;5070723;28;20368;-80
2023/12/14 12:30:49;;;;;;;2.93;2.30;;;;;;;;;;5055830;28;20386;-80
2023/12/14 12:33:15;;;;;;;2.40;2.20;;;;;;;;;;5059218;28;20378;-79
2023/12/14 12:35:41;;;;;;;2.80;2.20;;;;;;;;;;5059359;28;20758;-79
2023/12/14 12:38:07;;;;;;;3.70;1.98;;;;;;;;;;5059401;28;20388;-79
2023/12/14 12:40:33;;;;;;;3.08;2.10;;;;;;;;;;5058939;28;20863;-80
2023/12/14 12:42:59;;;;;;;2.20;1.92;;;;;;;;;;5058718;28;20416;-79
2023/12/14 12:45:28;;;;;;;2.08;1.83;;;;;;;;;;5059221;28;20389;-79
2023/12/14 12:47:54;;;;;;;2.50;1.70;;;;;;;;;;5059039;28;20404;-79
2023/12/14 12:50:20;;;;;;;1.80;1.60;;;;;;;;;;5059240;28;20781;-79
2023/12/14 12:52:48;;;;;;;2.50;1.80;;;;;;;;;;5058077;28;20381;-79
2023/12/14 12:55:15;;;;;;;1.83;1.70;;;;;;;;;;5059006;28;20411;-79
2023/12/14 12:57:41;;;;;;;2.03;1.85;;;;;;;;;;5059278;28;20385;-79
2023/12/14 13:00:11;;;;;;;1.80;1.70;;;;;;;;;;5059286;28;20752;-80
2023/12/14 13:02:38;;;;;;;1.60;1.50;;;;;;;;;;5059274;28;20464;-80
2023/12/14 13:05:05;;;;;;;1.60;1.50;;;;;;;;;;5059886;28;20385;-79
2023/12/14 13:07:32;;;;;;;1.90;1.70;;;;;;;;;;5058734;28;20377;-79
2023/12/14 13:09:58;;;;;;;1.80;1.70;;;;;;;;;;5059206;28;20374;-79
2023/12/14 13:12:24;;;;;;;2.35;1.80;;;;;;;;;;5078413;28;20768;-79
2023/12/14 13:14:50;;;;;;;1.92;1.80;;;;;;;;;;5079162;28;20379;-79
2023/12/14 13:17:18;;;;;;;2.00;1.55;;;;;;;;;;5078633;28;20388;-79
2023/12/14 13:19:45;;;;;;;1.38;1.27;;;;;;;;;;5078786;28;20384;-79
2023/12/14 13:22:11;;;;;;;1.60;1.42;;;;;;;;;;5078623;28;20463;-79
2023/12/14 13:24:37;;;;;;;2.70;1.50;;;;;;;;;;5078336;28;20442;-79
2023/12/14 13:27:04;;;;;;;1.75;1.50;;;;;;;;;;5078312;28;20376;-79
2023/12/14 13:29:35;;;;;;;1.85;1.48;;;;;;;;;;5078524;28;20380;-79
2023/12/14 13:32:01;;;;;;;1.40;1.30;;;;;;;;;;5079068;28;20463;-79
2023/12/14 13:34:32;;;;;;;1.55;1.45;;;;;;;;;;5078575;28;20380;-80
2023/12/14 13:37:00;;;;;;;1.42;1.33;;;;;;;;;;5060549;28;20399;-79
2023/12/14 13:39:26;;;;;;;1.90;1.20;;;;;;;;;;5078465;28;20384;-79
2023/12/14 13:41:52;;;;;;;1.63;1.45;;;;;;;;;;5078405;28;20437;-79
2023/12/14 13:44:18;;;;;;;1.90;1.48;;;;;;;;;;5076998;28;20772;-79
2023/12/14 13:46:44;;;;;;;2.13;1.50;;;;;;;;;;5078101;28;20440;-79
2023/12/14 13:49:10;;;;;;;2.40;1.58;;;;;;;;;;5078354;28;20445;-79
2023/12/14 13:51:36;;;;;;;1.98;1.27;;;;;;;;;;5078866;28;20375;-79
2023/12/14 13:54:02;;;;;;;1.52;1.42;;;;;;;;;;5077579;28;20709;-79
2023/12/14 13:56:28;;;;;;;2.30;1.90;;;;;;;;;;5078265;28;20486;-79
2023/12/14 13:58:54;;;;;;;1.50;1.23;;;;;;;;;;5078441;28;20412;-80
2023/12/14 14:01:21;;;;;;;1.20;1.10;;;;;;;;;;5078164;28;20375;-80
2023/12/14 14:03:47;;;;;;;1.33;1.10;;;;;;;;;;5077868;28;20399;-80
2023/12/14 14:06:13;;;;;;;1.05;0.60;;;;;;;;;;5078016;28;20403;-80
2023/12/14 14:08:39;;;;;;;2.20;1.40;;;;;;;;;;5077115;28;20459;-80
2023/12/14 14:11:05;;;;;;;1.00;0.90;;;;;;;;;;5078522;28;20412;-80
2023/12/14 14:13:32;;;;;;;0.63;0.60;;;;;;;;;;5077665;28;20379;-80
2023/12/14 14:15:58;;;;;;;0.90;0.80;;;;;;;;;;5077508;28;20380;-80
2023/12/14 14:18:24;;;;;;;0.70;0.70;;;;;;;;;;5077480;28;20395;-80
2023/12/14 14:20:50;;;;;;;1.20;1.00;;;;;;;;;;5072937;28;20380;-80
2023/12/14 14:23:17;;;;;;;1.23;0.93;;;;;;;;;;5057031;28;20479;-80
2023/12/14 14:25:44;;;;;;;1.15;0.93;;;;;;;;;;5058335;28;20380;-80
2023/12/14 14:28:10;;;;;;;1.00;0.90;;;;;;;;;;5057712;28;20392;-80
2023/12/14 14:30:35;;;;;;;1.40;1.02;;;;;;;;;;5057920;28;20385;-80
2023/12/14 14:33:01;;;;;;;0.60;0.60;;;;;;;;;;5057967;28;20402;-80
2023/12/14 14:35:28;;;;;;;0.75;0.70;;;;;;;;;;5057091;28;20468;-79
2023/12/14 14:37:55;;;;;;;0.57;0.52;;;;;;;;;;5057912;28;20464;-80